Time;durP1;ratioP1;P1;durP2;ratioP2;P2;SDS_P1;SDS_P2;PMS_P1;PMS_P2;Temp;Humidity;BMP_temperature;BMP_pressure;BME280_temperature;BME280_humidity;BME280_pressure;Samples;Min_cycle;Max_cycle;Signal;HPM_P1;HPM_P2
2023/12/10 00:01:14;;;;;;;1.13;0.50;;;;;;;23.27;91.19;99686.69;10452958;28;20403;-81
2023/12/10 00:06:15;;;;;;;6.90;0.35;;;;;;;24.27;89.87;99673.13;10460186;28;20044;-81
2023/12/10 00:11:18;;;;;;;0.63;0.45;;;;;;;23.68;89.63;99686.50;10443307;28;20049;-81
2023/12/10 00:16:19;;;;;;;2.45;0.63;;;;;;;22.71;89.56;99697.03;10440232;28;20053;-80
2023/12/10 00:21:21;;;;;;;0.98;0.30;;;;;;;24.21;88.76;99683.97;10439037;28;20044;-80
2023/12/10 00:26:23;;;;;;;0.00;0.00;;;;;;;23.71;87.38;99689.00;10453444;28;20047;-80
2023/12/10 00:31:25;;;;;;;0.22;0.20;;;;;;;22.53;89.32;99700.44;10449857;28;20127;-80
2023/12/10 00:36:27;;;;;;;0.80;0.25;;;;;;;25.61;87.91;99691.53;10434376;28;20136;-80
2023/12/10 00:41:29;;;;;;;0.22;0.20;;;;;;;23.26;89.46;99698.13;10449644;28;20049;-80
2023/12/10 00:46:31;;;;;;;0.95;0.90;;;;;;;24.63;88.79;99698.50;10462312;28;20041;-79
2023/12/10 00:51:32;;;;;;;0.32;0.32;;;;;;;21.77;92.49;99709.63;10452414;28;20148;-79
2023/12/10 00:56:34;;;;;;;2.55;0.32;;;;;;;23.96;90.76;99711.50;10436862;28;20040;-80
2023/12/10 01:01:36;;;;;;;0.30;0.30;;;;;;;24.28;92.77;99716.06;10449010;28;20103;-79
2023/12/10 01:06:38;;;;;;;0.00;0.00;;;;;;;21.55;93.47;99733.16;10460642;28;20041;-79
2023/12/10 01:11:40;;;;;;;2.67;0.57;;;;;;;21.50;97.16;99741.19;10448817;28;20045;-80
2023/12/10 01:16:41;;;;;;;0.20;0.20;;;;;;;21.46;99.05;99731.75;10444893;28;20094;-80
2023/12/10 01:21:43;;;;;;;0.00;0.00;;;;;;;23.33;95.85;99740.72;10452997;28;20041;-80
2023/12/10 01:26:45;;;;;;;0.57;0.47;;;;;;;21.08;97.09;99757.59;10435490;28;20420;-80
2023/12/10 01:31:46;;;;;;;0.00;0.00;;;;;;;23.29;96.69;99748.78;10448440;28;20044;-80
2023/12/10 01:36:49;;;;;;;0.08;0.03;;;;;;;22.07;95.79;99748.66;10432174;28;20558;-80
2023/12/10 01:41:50;;;;;;;0.00;0.00;;;;;;;23.67;96.01;99758.41;10430561;28;20124;-80
2023/12/10 01:46:55;;;;;;;3.25;0.38;;;;;;;21.95;94.16;99768.34;10466319;28;20423;-80
2023/12/10 01:51:57;;;;;;;1.77;1.10;;;;;;;24.43;93.17;99757.41;10464686;28;20415;-80
2023/12/10 01:56:59;;;;;;;33.33;1.35;;;;;;;22.88;94.46;99768.97;10432612;28;20131;-80
2023/12/10 02:02:07;;;;;;;16.42;0.70;;;;;;;22.67;94.87;99776.84;10435892;28;20076;-80
2023/12/10 02:07:10;;;;;;;1.70;0.68;;;;;;;23.68;93.33;99775.06;10434151;28;20037;-80
2023/12/10 02:12:12;;;;;;;1.55;0.47;;;;;;;23.33;93.81;99769.63;10434623;28;20051;-80
2023/12/10 02:17:13;;;;;;;2.10;0.43;;;;;;;23.39;94.42;99782.50;10448421;28;20045;-80
2023/12/10 02:22:21;;;;;;;0.85;0.43;;;;;;;23.69;94.39;99777.63;10431088;28;20131;-80
2023/12/10 02:27:22;;;;;;;0.10;0.10;;;;;;;22.49;97.15;99781.06;10438238;28;20057;-80
2023/12/10 02:32:24;;;;;;;1.50;0.68;;;;;;;20.63;97.11;99794.91;10432076;28;20393;-80
2023/12/10 02:37:26;;;;;;;0.35;0.30;;;;;;;21.94;97.86;99798.09;10452378;28;20052;-79
2023/12/10 02:42:28;;;;;;;9.55;0.55;;;;;;;21.41;97.40;99788.69;10428140;28;20051;-80
2023/12/10 02:47:30;;;;;;;1.38;0.85;;;;;;;21.57;98.57;99791.66;10444077;28;20049;-79
2023/12/10 02:52:35;;;;;;;1.05;0.98;;;;;;;21.52;100.00;99804.91;10451192;28;20068;-80
2023/12/10 02:57:37;;;;;;;1.85;1.17;;;;;;;21.03;100.00;99804.91;10452510;28;20521;-80
2023/12/10 03:02:39;;;;;;;0.30;0.30;;;;;;;22.08;98.98;99815.91;10463957;28;20098;-80
2023/12/10 03:07:41;;;;;;;0.30;0.30;;;;;;;21.36;100.00;99817.72;10456421;28;20040;-79
2023/12/10 03:12:42;;;;;;;0.05;0.05;;;;;;;21.87;100.00;99812.38;10464437;28;20041;-79
2023/12/10 03:17:44;;;;;;;4.00;2.75;;;;;;;21.82;100.00;99827.41;10452534;28;20045;-79
2023/12/10 03:22:46;;;;;;;1.58;1.48;;;;;;;20.65;100.00;99834.97;10459594;28;20096;-80
2023/12/10 03:27:48;;;;;;;0.20;0.10;;;;;;;21.55;100.00;99817.03;10430798;28;20094;-80
2023/12/10 03:32:50;;;;;;;0.20;0.20;;;;;;;21.62;100.00;99822.94;10436000;28;20452;-80
2023/12/10 03:37:52;;;;;;;1.55;0.85;;;;;;;21.05;99.82;99833.63;10452270;28;20051;-80
2023/12/10 03:42:55;;;;;;;0.20;0.20;;;;;;;20.20;100.00;99824.19;10447356;28;20124;-80
2023/12/10 03:47:57;;;;;;;0.00;0.00;;;;;;;22.87;98.91;99835.53;10449969;28;20500;-80
2023/12/10 03:53:00;;;;;;;0.90;0.47;;;;;;;20.92;100.00;99839.31;10444133;28;20060;-80
2023/12/10 03:58:02;;;;;;;0.08;0.00;;;;;;;22.77;99.72;99841.16;10443168;28;20479;-81
2023/12/10 04:03:03;;;;;;;0.60;0.32;;;;;;;21.98;100.00;99857.38;10450049;28;20065;-81
2023/12/10 04:08:05;;;;;;;0.10;0.10;;;;;;;22.27;98.23;99857.16;10439928;28;20044;-81
2023/12/10 04:13:07;;;;;;;0.28;0.13;;;;;;;21.93;98.71;99859.34;10435044;28;20053;-81
2023/12/10 04:18:10;;;;;;;0.82;0.38;;;;;;;21.64;99.22;99873.50;10445935;28;20120;-80
2023/12/10 04:23:13;;;;;;;0.75;0.30;;;;;;;21.24;97.02;99881.88;10456770;28;20073;-80
2023/12/10 04:28:14;;;;;;;0.80;0.47;;;;;;;23.66;96.54;99876.81;10425568;28;20123;-80
2023/12/10 04:33:16;;;;;;;1.25;1.02;;;;;;;21.53;98.46;99894.84;10437611;28;20131;-81
2023/12/10 04:38:18;;;;;;;0.00;0.00;;;;;;;21.45;100.00;99883.75;10452340;28;20139;-81
2023/12/10 04:43:20;;;;;;;0.25;0.25;;;;;;;21.66;99.43;99892.66;10425640;28;20080;-81
2023/12/10 04:48:22;;;;;;;0.00;0.00;;;;;;;22.33;99.25;99883.16;10452708;28;20502;-80
2023/12/10 04:53:24;;;;;;;2.17;1.05;;;;;;;23.24;96.36;99886.53;10443979;28;20075;-80
2023/12/10 04:58:25;;;;;;;10.02;0.80;;;;;;;23.01;98.54;99903.25;10444857;28;20120;-80
2023/12/10 05:03:27;;;;;;;1.00;0.32;;;;;;;22.27;99.04;99899.16;10448399;28;20044;-80
2023/12/10 05:08:29;;;;;;;0.10;0.10;;;;;;;23.04;97.88;99901.34;10438230;28;20037;-80
2023/12/10 05:13:31;;;;;;;0.00;0.00;;;;;;;21.91;99.28;99913.59;10440889;28;20654;-80
2023/12/10 05:18:34;;;;;;;0.88;0.25;;;;;;;22.85;98.54;99903.88;10451998;28;20136;-82
2023/12/10 05:23:36;;;;;;;0.00;0.00;;;;;;;21.61;98.75;99923.44;10461895;28;20045;-81
2023/12/10 05:28:38;;;;;;;0.35;0.25;;;;;;;22.67;98.14;99913.38;10442269;28;20124;-81
2023/12/10 05:33:39;;;;;;;8.85;1.20;;;;;;;23.67;93.07;99921.44;10424574;28;20102;-81
2023/12/10 05:38:42;;;;;;;0.20;0.10;;;;;;;24.69;93.97;99924.69;10440730;28;20048;-81
2023/12/10 05:43:43;;;;;;;0.00;0.00;;;;;;;26.05;91.67;99929.22;10447257;28;20051;-81
2023/12/10 05:48:45;;;;;;;0.00;0.00;;;;;;;24.70;91.54;99931.66;10421371;28;20041;-81
2023/12/10 05:53:47;;;;;;;0.90;0.65;;;;;;;23.42;92.44;99934.81;10421312;28;20401;-81
2023/12/10 05:58:49;;;;;;;0.00;0.00;;;;;;;25.41;92.15;99950.19;10446500;28;20116;-81
2023/12/10 06:03:50;;;;;;;1.63;0.95;;;;;;;23.59;91.46;99981.38;10443616;28;20074;-81
2023/12/10 06:08:52;;;;;;;0.00;0.00;;;;;;;22.96;92.10;99984.84;10439834;28;20045;-80
2023/12/10 06:13:54;;;;;;;0.00;0.00;;;;;;;23.47;93.53;99976.66;10420087;28;20044;-81
2023/12/10 06:18:56;;;;;;;0.10;0.10;;;;;;;24.25;92.86;100006.56;10437567;28;20041;-81
2023/12/10 06:23:58;;;;;;;0.52;0.52;;;;;;;24.03;93.66;100019.84;10433085;28;20064;-80
2023/12/10 06:28:59;;;;;;;0.88;0.22;;;;;;;22.83;93.80;100026.50;10424662;28;20473;-81
2023/12/10 06:34:01;;;;;;;0.10;0.10;;;;;;;22.78;93.97;100039.81;10434313;28;20419;-80
2023/12/10 06:39:03;;;;;;;0.00;0.00;;;;;;;24.06;92.08;100051.28;10443603;28;20120;-80
2023/12/10 06:44:09;;;;;;;1.65;1.23;;;;;;;22.97;93.81;100073.25;10446428;28;20589;-80
2023/12/10 06:49:11;;;;;;;0.10;0.10;;;;;;;25.34;89.32;100090.19;10438349;28;20047;-80
2023/12/10 06:54:13;;;;;;;1.35;0.85;;;;;;;24.01;93.77;100090.97;10434290;28;20459;-79
2023/12/10 06:59:15;;;;;;;0.00;0.00;;;;;;;23.77;95.14;100105.97;10418735;28;20484;-80
2023/12/10 07:04:17;;;;;;;0.00;0.00;;;;;;;25.05;92.59;100114.47;10463698;28;20041;-79
2023/12/10 07:09:19;;;;;;;0.52;0.15;;;;;;;22.07;94.21;100134.22;10465506;28;20099;-80
2023/12/10 07:14:21;;;;;;;0.10;0.10;;;;;;;23.90;92.09;100149.22;10441422;28;20084;-80
2023/12/10 07:19:23;;;;;;;0.00;0.00;;;;;;;24.67;91.20;100129.34;10451597;28;20044;-80
2023/12/10 07:24:25;;;;;;;2.08;0.30;;;;;;;23.27;93.77;100154.44;10434796;28;20041;-79
2023/12/10 07:29:27;;;;;;;1.00;0.10;;;;;;;23.15;93.63;100171.50;10446353;28;20048;-80
2023/12/10 07:34:29;;;;;;;0.40;0.20;;;;;;;24.10;90.62;100194.09;10446795;28;20488;-80
2023/12/10 07:39:31;;;;;;;0.77;0.77;;;;;;;23.29;92.30;100207.78;10446273;28;20060;-80
2023/12/10 07:44:33;;;;;;;0.32;0.10;;;;;;;23.95;92.71;100204.31;10446706;28;20049;-80
2023/12/10 07:49:35;;;;;;;0.82;0.70;;;;;;;23.91;90.55;100218.50;10432896;28;20044;-80
2023/12/10 07:54:37;;;;;;;0.10;0.10;;;;;;;23.89;93.00;100230.84;10454580;28;20511;-78
2023/12/10 07:59:40;;;;;;;0.43;0.30;;;;;;;22.51;90.72;100243.81;10453403;28;20087;-79
2023/12/10 08:04:41;;;;;;;0.80;0.43;;;;;;;23.26;89.01;100239.44;10449274;28;20136;-79
2023/12/10 08:09:44;;;;;;;0.00;0.00;;;;;;;23.96;90.40;100255.19;10428041;28;20495;-80
2023/12/10 08:14:48;;;;;;;1.65;1.25;;;;;;;24.52;87.33;100267.75;10469806;28;20044;-79
2023/12/10 08:19:50;;;;;;;4.43;1.98;;;;;;;23.86;89.88;100288.88;10459903;28;20041;-80
2023/12/10 08:24:52;;;;;;;1.30;0.50;;;;;;;24.29;88.43;100281.03;10431729;28;20048;-80
2023/12/10 08:29:54;;;;;;;0.00;0.00;;;;;;;23.87;88.32;100306.34;10448277;28;20032;-80
2023/12/10 08:34:56;;;;;;;0.73;0.40;;;;;;;23.39;89.89;100311.66;10452354;28;20053;-80
2023/12/10 08:39:57;;;;;;;0.00;0.00;;;;;;;23.69;88.26;100326.31;10431235;28;20459;-80
2023/12/10 08:45:00;;;;;;;0.08;0.08;;;;;;;27.13;84.60;100330.34;10460862;28;20075;-79
2023/12/10 08:50:02;;;;;;;0.10;0.10;;;;;;;24.93;88.27;100340.69;10438415;28;20230;-80
2023/12/10 08:55:05;;;;;;;2.10;0.70;;;;;;;24.84;89.24;100335.81;10445249;28;20152;-80
2023/12/10 09:00:07;;;;;;;0.10;0.10;;;;;;;24.88;86.74;100337.41;10450599;28;20035;-80
2023/12/10 09:05:09;;;;;;;0.05;0.05;;;;;;;25.03;87.47;100356.94;10446265;28;20537;-80
2023/12/10 09:10:11;;;;;;;1.40;0.57;;;;;;;23.45;89.61;100358.72;10445972;28;20047;-79
2023/12/10 09:15:14;;;;;;;0.00;0.00;;;;;;;25.41;84.42;100366.78;10447899;28;20041;-80
2023/12/10 09:20:16;;;;;;;6.60;0.38;;;;;;;25.38;86.41;100383.59;10447269;28;20498;-80
2023/12/10 09:25:18;;;;;;;13.85;0.70;;;;;;;25.29;84.32;100397.97;10466196;28;20067;-80
2023/12/10 09:30:19;;;;;;;0.00;0.00;;;;;;;23.66;85.74;100413.22;10434151;28;20049;-81
2023/12/10 09:35:21;;;;;;;0.00;0.00;;;;;;;25.16;84.92;100410.88;10467751;28;20052;-80
2023/12/10 09:40:23;;;;;;;0.50;0.15;;;;;;;22.53;86.20;100432.75;10435751;28;20079;-81
2023/12/10 09:45:25;;;;;;;0.25;0.13;;;;;;;23.85;85.19;100434.44;10420492;28;20144;-79
2023/12/10 09:50:27;;;;;;;0.28;0.28;;;;;;;24.44;86.80;100437.50;10450808;28;20107;-81
2023/12/10 09:55:29;;;;;;;1.65;0.55;;;;;;;25.46;84.02;100441.25;10446251;28;20057;-80
2023/12/10 10:00:30;;;;;;;1.67;0.28;;;;;;;27.22;80.82;100440.06;10440183;28;20138;-79
2023/12/10 10:05:36;;;;;;;1.40;0.20;;;;;;;27.10;80.90;100456.56;10452624;28;20049;-79
2023/12/10 10:10:37;;;;;;;0.10;0.10;;;;;;;24.96;81.64;100469.69;10448932;28;20056;-80
2023/12/10 10:15:39;;;;;;;1.30;0.10;;;;;;;25.66;81.95;100462.31;10461022;28;20055;-80
2023/12/10 10:20:41;;;;;;;0.00;0.00;;;;;;;23.23;86.01;100462.91;10439549;28;20045;-79
2023/12/10 10:25:43;;;;;;;0.05;0.05;;;;;;;24.90;82.65;100462.03;10432853;28;20127;-79
2023/12/10 10:30:45;;;;;;;0.20;0.10;;;;;;;24.46;83.03;100459.38;10446088;28;20048;-80
2023/12/10 10:35:47;;;;;;;0.20;0.20;;;;;;;24.11;85.26;100451.91;10446226;28;20080;-80
2023/12/10 10:40:49;;;;;;;0.20;0.20;;;;;;;24.38;82.66;100459.66;10456807;28;20692;-80
2023/12/10 10:45:53;;;;;;;1.38;0.98;;;;;;;25.35;85.02;100453.09;10438440;28;20535;-80
2023/12/10 10:50:56;;;;;;;0.00;0.00;;;;;;;24.18;84.72;100457.78;10451164;28;20076;-80
2023/12/10 10:55:58;;;;;;;0.13;0.13;;;;;;;23.63;85.41;100466.78;10449580;28;20057;-80
2023/12/10 11:01:00;;;;;;;0.32;0.30;;;;;;;24.54;84.62;100449.38;10451239;28;20140;-80
2023/12/10 11:06:06;;;;;;;0.00;0.00;;;;;;;23.47;86.18;100473.50;10444747;28;20041;-80
2023/12/10 11:11:10;;;;;;;0.30;0.08;;;;;;;21.38;87.42;100470.06;10462285;28;20128;-80
2023/12/10 11:16:13;;;;;;;0.45;0.22;;;;;;;23.80;86.26;100478.44;10427677;28;20065;-80
2023/12/10 11:21:14;;;;;;;0.10;0.10;;;;;;;22.79;87.90;100484.44;10450699;28;20139;-80
2023/12/10 11:26:17;;;;;;;0.60;0.25;;;;;;;23.84;85.55;100495.84;10454052;28;20048;-80
2023/12/10 11:31:18;;;;;;;0.30;0.22;;;;;;;24.72;84.70;100474.19;10440353;28;20045;-80
2023/12/10 11:36:20;;;;;;;1.77;0.30;;;;;;;22.95;87.24;100474.31;10481069;28;20076;-79
2023/12/10 11:41:40;;;;;;;0.00;0.00;;;;;;;24.14;86.21;100470.22;10449047;28;20041;-80
2023/12/10 11:46:58;;;;;;;0.88;0.88;;;;;;;26.09;84.31;100459.56;10459360;28;20040;-80
2023/12/10 11:52:00;;;;;;;0.65;0.52;;;;;;;23.38;86.37;100479.94;10462239;28;20068;-81
2023/12/10 11:57:02;;;;;;;13.73;0.98;;;;;;;25.08;85.23;100483.25;10442026;28;20033;-80
2023/12/10 12:02:05;;;;;;;1.33;0.55;;;;;;;22.06;89.37;100488.34;10458116;28;20068;-81
2023/12/10 12:07:27;;;;;;;1.88;1.02;;;;;;;22.68;88.84;100486.56;10451245;28;20558;-80
2023/12/10 12:12:31;;;;;;;0.00;0.00;;;;;;;22.95;88.82;100477.78;10437405;28;20060;-80
2023/12/10 12:17:35;;;;;;;0.00;0.00;;;;;;;23.27;88.84;100480.31;10457393;28;20127;-81
2023/12/10 12:22:36;;;;;;;4.68;0.20;;;;;;;22.45;86.98;100481.09;10448070;28;20107;-80
2023/12/10 12:27:38;;;;;;;0.00;0.00;;;;;;;24.89;84.56;100473.50;10446145;28;20041;-80
2023/12/10 12:32:40;;;;;;;0.22;0.13;;;;;;;25.52;83.89;100475.25;10449118;28;20056;-80
2023/12/10 12:37:43;;;;;;;1.85;0.20;;;;;;;26.63;82.88;100463.22;10432558;28;20132;-81
2023/12/10 12:42:44;;;;;;;0.10;0.10;;;;;;;24.51;83.87;100463.53;10453674;28;20045;-83
2023/12/10 12:47:48;;;;;;;0.00;0.00;;;;;;;25.46;83.74;100455.31;10442219;28;20107;-80
2023/12/10 12:52:50;;;;;;;0.00;0.00;;;;;;;22.79;87.24;100469.56;10438778;28;20052;-80
2023/12/10 12:57:54;;;;;;;0.47;0.30;;;;;;;24.19;85.63;100459.50;10431797;28;20091;-81
2023/12/10 13:02:57;;;;;;;0.10;0.10;;;;;;;23.95;85.71;100467.41;10463858;28;20480;-81
2023/12/10 13:07:59;;;;;;;0.00;0.00;;;;;;;24.29;85.92;100445.09;10438484;28;20053;-81
2023/12/10 13:13:01;;;;;;;0.10;0.10;;;;;;;25.93;83.07;100463.78;10431513;28;20068;-81
2023/12/10 13:18:03;;;;;;;0.00;0.00;;;;;;;24.50;84.96;100448.63;10432959;28;20040;-81
2023/12/10 13:23:06;;;;;;;0.00;0.00;;;;;;;25.25;84.89;100441.25;10441737;28;20047;-81
2023/12/10 13:28:09;;;;;;;0.13;0.10;;;;;;;23.72;86.97;100440.13;10439468;28;20041;-81
2023/12/10 13:33:11;;;;;;;0.00;0.00;;;;;;;24.26;85.57;100442.56;10424557;28;20381;-81
2023/12/10 13:38:13;;;;;;;0.38;0.38;;;;;;;25.79;81.84;100420.44;10435207;28;20495;-81
2023/12/10 13:43:15;;;;;;;1.02;0.25;;;;;;;22.89;86.90;100443.00;10456421;28;20127;-80
2023/12/10 13:48:17;;;;;;;0.00;0.00;;;;;;;23.06;87.38;100417.00;10447219;28;20090;-81
2023/12/10 13:53:19;;;;;;;0.55;0.55;;;;;;;23.96;86.08;100418.28;10441670;28;20064;-80
2023/12/10 13:58:22;;;;;;;0.00;0.00;;;;;;;23.07;89.30;100434.50;10435570;28;20585;-81
2023/12/10 14:03:24;;;;;;;4.20;0.57;;;;;;;25.31;85.73;100419.88;10452015;28;20064;-81
2023/12/10 14:08:26;;;;;;;1.85;1.75;;;;;;;25.82;84.82;100422.06;10448334;28;20479;-81
2023/12/10 14:13:27;;;;;;;1.08;0.40;;;;;;;25.03;85.79;100410.53;10426599;28;20115;-81
2023/12/10 14:18:29;;;;;;;0.43;0.10;;;;;;;23.96;87.09;100411.25;10453544;28;20036;-81
2023/12/10 14:23:31;;;;;;;1.90;0.40;;;;;;;24.13;87.99;100402.69;10443363;28;20139;-82
2023/12/10 14:28:33;;;;;;;0.10;0.10;;;;;;;27.15;85.04;100376.06;10420136;28;20462;-82
2023/12/10 14:33:36;;;;;;;0.22;0.20;;;;;;;23.48;89.23;100383.22;10451479;28;20069;-83
2023/12/10 14:38:38;;;;;;;1.00;0.75;;;;;;;23.57;89.90;100356.56;10434781;28;20147;-82
2023/12/10 14:43:39;;;;;;;0.47;0.47;;;;;;;23.70;88.31;100339.44;10444165;28;20046;-82
2023/12/10 14:48:41;;;;;;;0.40;0.38;;;;;;;24.59;88.80;100336.84;10445226;28;20048;-83
2023/12/10 14:53:43;;;;;;;0.20;0.13;;;;;;;24.49;88.01;100335.50;10445216;28;20049;-82
2023/12/10 14:58:45;;;;;;;0.55;0.52;;;;;;;24.83;89.56;100313.88;10449377;28;20040;-80
2023/12/10 15:03:47;;;;;;;7.03;1.65;;;;;;;23.06;92.67;100298.78;10430690;28;20049;-82
2023/12/10 15:08:49;;;;;;;0.03;0.03;;;;;;;24.06;90.05;100293.34;10447185;28;20112;-83
2023/12/10 15:13:51;;;;;;;0.08;0.08;;;;;;;23.01;92.30;100295.47;10456571;28;20140;-82
2023/12/10 15:18:53;;;;;;;0.10;0.10;;;;;;;23.76;92.45;100297.09;10448678;28;20102;-83
2023/12/10 15:23:55;;;;;;;1.88;1.73;;;;;;;25.07;89.08;100302.31;10467481;28;20045;-83
2023/12/10 15:28:58;;;;;;;1.27;0.52;;;;;;;27.00;87.96;100287.84;10457398;28;20045;-81
2023/12/10 15:33:59;;;;;;;3.53;1.27;;;;;;;23.00;93.76;100283.25;10447206;28;20057;-81
2023/12/10 15:39:03;;;;;;;1.80;1.45;;;;;;;24.80;89.54;100277.13;10442419;28;20056;-81
2023/12/10 15:44:05;;;;;;;9.07;0.35;;;;;;;26.67;88.09;100259.56;10426952;28;20137;-81
2023/12/10 15:49:07;;;;;;;3.20;0.43;;;;;;;26.13;89.86;100249.09;10455084;28;20113;-82
2023/12/10 15:54:09;;;;;;;1.60;1.23;;;;;;;24.58;90.84;100224.50;10435424;28;20048;-80
2023/12/10 15:59:11;;;;;;;10.57;1.85;;;;;;;24.22;90.72;100222.53;10431661;28;20128;-82
2023/12/10 16:04:12;;;;;;;19.65;0.80;;;;;;;24.61;89.76;100195.38;10427587;28;20057;-81
2023/12/10 16:09:15;;;;;;;14.55;0.70;;;;;;;24.44;90.60;100174.22;10446479;28;20040;-81
2023/12/10 16:14:17;;;;;;;2.63;0.40;;;;;;;24.69;90.69;100168.75;10450692;28;20047;-81
2023/12/10 16:19:18;;;;;;;0.70;0.70;;;;;;;23.21;91.42;100154.66;10448802;28;20051;-81
2023/12/10 16:24:20;;;;;;;0.38;0.30;;;;;;;21.98;93.01;100145.00;10440417;28;20044;-81
2023/12/10 16:29:22;;;;;;;7.82;0.77;;;;;;;23.49;91.35;100122.03;10435082;28;20492;-81
2023/12/10 16:34:24;;;;;;;0.95;0.32;;;;;;;23.97;92.85;100113.03;10455386;28;20072;-81
2023/12/10 16:39:26;;;;;;;0.75;0.30;;;;;;;22.48;92.96;100079.44;10441648;28;20045;-81
2023/12/10 16:44:27;;;;;;;3.60;1.25;;;;;;;24.71;91.42;100058.94;10450535;28;20045;-81
2023/12/10 16:49:29;;;;;;;0.00;0.00;;;;;;;22.52;89.42;100046.03;10452021;28;20518;-81
2023/12/10 16:54:31;;;;;;;1.40;0.75;;;;;;;24.51;89.71;100044.03;10446508;28;20043;-80
2023/12/10 16:59:33;;;;;;;0.10;0.10;;;;;;;24.60;89.05;100038.34;10442025;28;20407;-80
2023/12/10 17:04:35;;;;;;;8.93;0.17;;;;;;;24.10;91.24;100038.84;10447836;28;20045;-80
2023/12/10 17:09:37;;;;;;;0.55;0.55;;;;;;;22.32;93.15;100029.25;10444168;28;20041;-80
2023/12/10 17:14:39;;;;;;;0.63;0.13;;;;;;;24.65;89.54;100001.22;10439982;28;20049;-80
2023/12/10 17:19:41;;;;;;;0.50;0.35;;;;;;;24.97;86.89;99989.22;10442408;28;20522;-81
2023/12/10 17:24:43;;;;;;;0.08;0.03;;;;;;;23.98;90.02;99977.97;10439644;28;20533;-80
2023/12/10 17:29:45;;;;;;;0.03;0.03;;;;;;;22.53;93.37;99976.03;10457247;28;20404;-81
2023/12/10 17:34:47;;;;;;;0.00;0.00;;;;;;;20.71;98.47;99949.91;10434154;28;20484;-82
2023/12/10 17:39:49;;;;;;;1.00;0.20;;;;;;;23.30;95.88;99930.94;10447563;28;20564;-82
2023/12/10 17:44:51;;;;;;;0.55;0.40;;;;;;;22.55;97.92;99905.97;10447056;28;20037;-84
2023/12/10 17:49:58;;;;;;;0.22;0.08;;;;;;;23.65;93.86;99896.97;10449029;28;20048;-83
2023/12/10 17:55:01;;;;;;;0.30;0.25;;;;;;;23.05;95.83;99876.75;10426539;28;20566;-84
2023/12/10 18:00:04;;;;;;;1.77;0.80;;;;;;;22.55;96.68;99848.22;10431521;28;20049;-83
2023/12/10 18:05:07;;;;;;;0.00;0.00;;;;;;;23.85;95.42;99830.34;10454257;28;20040;-83
2023/12/10 18:10:11;;;;;;;0.00;0.00;;;;;;;23.26;94.96;99821.63;10444743;28;20049;-83
2023/12/10 18:15:13;;;;;;;10.10;0.80;;;;;;;23.58;97.04;99795.66;10427074;28;20053;-84
2023/12/10 18:20:15;;;;;;;0.98;0.30;;;;;;;21.87;97.91;99775.66;10439586;28;20040;-81
2023/12/10 18:25:17;;;;;;;3.25;1.15;;;;;;;23.48;98.82;99747.06;10434069;28;20045;-82
2023/12/10 18:30:20;;;;;;;0.00;0.00;;;;;;;21.09;100.00;99741.00;10427625;28;20553;-82
2023/12/10 18:35:23;;;;;;;13.93;1.10;;;;;;;22.11;100.00;99737.13;10433982;28;20049;-82
2023/12/10 18:40:27;;;;;;;0.22;0.22;;;;;;;24.27;98.49;99712.59;10438288;28;20670;-82
2023/12/10 18:45:31;;;;;;;0.00;0.00;;;;;;;23.33;100.00;99702.19;10433216;28;20128;-82
2023/12/10 18:50:33;;;;;;;5.10;0.90;;;;;;;40.33;100.00;98491.75;10438066;28;20492;-83
2023/12/10 18:55:35;;;;;;;1.60;0.08;;;;;;;44.34;100.00;97382.25;10426656;28;20408;-82
2023/12/10 19:00:36;;;;;;;4.15;0.52;;;;;;;45.88;100.00;97095.97;10424904;28;20121;-82
2023/12/10 19:05:42;;;;;;;0.57;0.57;;;;;;;46.47;100.00;96384.97;10461204;28;20036;-83
2023/12/10 19:10:45;;;;;;;0.00;0.00;;;;;;;46.84;100.00;95256.09;10454020;28;20044;-82
2023/12/10 19:15:47;;;;;;;0.35;0.30;;;;;;;44.91;100.00;96019.53;10449890;28;20053;-82
2023/12/10 19:20:51;;;;;;;0.45;0.40;;;;;;;44.74;100.00;96284.16;10443390;28;20420;-82
2023/12/10 19:25:53;;;;;;;0.52;0.35;;;;;;;46.72;100.00;96381.75;10440031;28;20041;-83
2023/12/10 19:30:55;;;;;;;1.02;0.70;;;;;;;44.92;100.00;96593.94;10423182;28;20041;-82
2023/12/10 19:35:57;;;;;;;0.00;0.00;;;;;;;37.41;100.00;99457.22;10431282;28;20044;-82
2023/12/10 19:40:59;;;;;;;0.55;0.43;;;;;;;37.08;100.00;99619.13;10456853;28;20040;-82
2023/12/10 19:46:01;;;;;;;1.65;1.55;;;;;;;34.34;100.00;99616.94;10474918;28;20079;-82
2023/12/10 19:51:03;;;;;;;0.10;0.10;;;;;;;32.53;100.00;99626.03;10458191;28;20037;-80
2023/12/10 19:56:05;;;;;;;0.10;0.10;;;;;;;30.37;100.00;99616.03;10449020;28;20058;-80
2023/12/10 20:01:07;;;;;;;0.10;0.10;;;;;;;32.13;100.00;99616.13;10441399;28;20060;-81
2023/12/10 20:06:09;;;;;;;0.00;0.00;;;;;;;32.40;100.00;99610.25;10451684;28;20041;-80
2023/12/10 20:11:11;;;;;;;0.00;0.00;;;;;;;32.16;100.00;99602.53;10448145;28;20061;-80
2023/12/10 20:16:13;;;;;;;0.00;0.00;;;;;;;32.59;100.00;99593.50;10437296;28;20091;-81
2023/12/10 20:21:16;;;;;;;0.05;0.03;;;;;;;34.16;100.00;99590.97;10415915;28;20056;-83
2023/12/10 20:26:17;;;;;;;0.25;0.20;;;;;;;36.32;91.19;99607.38;10449613;28;20057;-83
2023/12/10 20:31:32;;;;;;;0.10;0.10;;;;;;;37.18;90.97;99600.19;10419136;28;20135;-83
2023/12/10 20:36:34;;;;;;;0.47;0.40;;;;;;;33.32;93.25;99597.78;10426871;28;21272;-82
2023/12/10 20:41:36;;;;;;;0.45;0.35;;;;;;;34.54;90.53;99616.88;10438426;28;20053;-82
2023/12/10 20:46:37;;;;;;;1.33;0.45;;;;;;;33.26;91.47;99629.47;10443861;28;20045;-83
2023/12/10 20:51:39;;;;;;;0.68;0.52;;;;;;;35.05;89.46;99631.56;10421923;28;20403;-82
2023/12/10 20:56:41;;;;;;;0.17;0.17;;;;;;;33.05;88.66;99649.97;10463495;28;20141;-81
2023/12/10 21:01:44;;;;;;;0.30;0.30;;;;;;;35.52;85.22;99649.28;10443247;28;20063;-82
2023/12/10 21:06:46;;;;;;;0.57;0.50;;;;;;;33.02;88.99;99646.72;10430166;28;20139;-82
2023/12/10 21:11:52;;;;;;;0.73;0.45;;;;;;;34.65;86.27;99656.81;10436236;28;20086;-81
2023/12/10 21:16:54;;;;;;;0.13;0.05;;;;;;;33.30;88.41;99660.25;10437828;28;20071;-80
2023/12/10 21:21:56;;;;;;;2.97;0.85;;;;;;;32.20;90.18;99662.59;10439587;28;20045;-81
2023/12/10 21:26:58;;;;;;;3.10;0.60;;;;;;;32.89;89.45;99674.47;10432402;28;20054;-80
2023/12/10 21:32:01;;;;;;;16.15;0.47;;;;;;;35.14;85.23;99672.66;10430190;28;20124;-81
2023/12/10 21:37:03;;;;;;;1.08;0.63;;;;;;;35.02;82.19;99679.19;10452205;28;20079;-80
2023/12/10 21:42:04;;;;;;;0.57;0.28;;;;;;;33.15;85.68;99689.16;10451807;28;20040;-80
2023/12/10 21:47:06;;;;;;;1.05;1.00;;;;;;;33.08;83.45;99694.19;10435629;28;20119;-80
2023/12/10 21:52:08;;;;;;;0.00;0.00;;;;;;;34.71;81.98;99693.69;10427765;28;20063;-80
2023/12/10 21:57:09;;;;;;;0.20;0.15;;;;;;;32.61;83.54;99712.50;10417236;28;20048;-80
2023/12/10 22:02:11;;;;;;;3.35;0.98;;;;;;;34.07;81.51;99722.75;10443546;28;20488;-80
2023/12/10 22:07:13;;;;;;;0.32;0.20;;;;;;;37.36;76.61;99733.47;10467982;28;20098;-81
2023/12/10 22:12:15;;;;;;;1.08;0.70;;;;;;;35.14;79.25;99731.56;10439227;28;20041;-80
2023/12/10 22:17:17;;;;;;;2.05;0.45;;;;;;;32.51;81.60;99731.94;10432454;28;20538;-80
2023/12/10 22:22:19;;;;;;;0.32;0.28;;;;;;;34.08;77.52;99732.47;10462642;28;20029;-81
2023/12/10 22:27:20;;;;;;;7.78;0.52;;;;;;;35.33;76.84;99730.59;10440373;28;20741;-80
2023/12/10 22:32:22;;;;;;;0.32;0.00;;;;;;;32.93;77.71;99759.56;10462748;28;20041;-80
2023/12/10 22:37:24;;;;;;;0.25;0.25;;;;;;;33.90;77.11;99759.03;10441729;28;20365;-80
2023/12/10 22:42:26;;;;;;;0.00;0.00;;;;;;;32.06;77.01;99766.78;10438724;28;20502;-80
2023/12/10 22:47:28;;;;;;;1.08;0.98;;;;;;;33.08;75.48;99768.91;10462367;28;20491;-80
2023/12/10 22:52:30;;;;;;;10.43;0.95;;;;;;;34.36;73.64;99764.66;10446223;28;20040;-80
2023/12/10 22:57:32;;;;;;;0.68;0.10;;;;;;;33.84;71.66;99776.50;10436492;28;20484;-80
2023/12/10 23:02:34;;;;;;;0.05;0.05;;;;;;;33.88;73.92;99781.53;10444219;28;20102;-81
2023/12/10 23:07:36;;;;;;;0.10;0.10;;;;;;;32.98;73.17;99792.00;10454309;28;20176;-81
2023/12/10 23:12:38;;;;;;;0.52;0.25;;;;;;;34.49;71.38;99785.78;10444196;28;20037;-81